Flight Track Log - Related Links

Times and Time Zones

All times are in EDT time to prevent confusion due to time zone crossing. See the N521LL flight status page for this flight to view local times or setup timezone preferences in your user account.

Time Position Orientation Groundspeed Altitude Reporting Facility
EDT Latitude Longitude Course Direction KTS MPH feet Rate Location/Type
Thu 10:43:09 AM 36.0764 -115.2000 230° Southwest 241 277 3,400  Level Los Angeles Center
Thu 10:44:34 AM 36.0175 -115.2858 230° Southwest 276 318 6,800 2,473 Climbing Los Angeles Center
Thu 10:45:54 AM 35.9283 -115.2886 181° South 283 326 10,200 2,571 Climbing Los Angeles Center
Thu 10:47:08 AM 35.8697 -115.2058 131° Southeast 292 336 13,400 2,803 Climbing Los Angeles Center
Thu 10:48:11 AM 35.8767 -115.0831 86° East 300 345 16,600 2,544 Climbing Los Angeles Center
Thu 10:49:13 AM 35.8833 -114.9753 86° East 310 357 18,700 1,854 Climbing Los Angeles Center
Thu 10:50:14 AM 35.8878 -114.8633 87° East 322 371 20,400 1,463 Climbing Los Angeles Center
Thu 10:51:16 AM 35.8939 -114.7469 86° East 334 384 21,700 1,403 Climbing Los Angeles Center
Thu 10:52:18 AM 35.8953 -114.6267 89° East 346 398 23,300 1,403 Climbing Los Angeles Center
Thu 10:53:20 AM 35.9028 -114.4814 86° East 352 405 24,600 1,113 Climbing Los Angeles Center
Thu 10:54:22 AM 35.9044 -114.3567 89° East 362 417 25,600 1,016 Climbing Los Angeles Center
Thu 10:55:24 AM 35.9125 -114.2294 85° East 370 426 26,700 1,113 Climbing Los Angeles Center
Thu 10:56:26 AM 35.9144 -114.1031 89° East 371 427 27,900 1,065 Climbing Los Angeles Center
Thu 10:57:28 AM 35.9206 -113.9772 87° East 369 425 28,900 1,161 Climbing Los Angeles Center
Thu 10:58:30 AM 35.9147 -113.8511 93° East 370 426 30,300 1,597 Climbing Los Angeles Center
Thu 10:59:32 AM 35.8911 -113.7039 101° East 366 421 32,200 1,776 Climbing Los Angeles Center
Thu 11:00:35 AM 35.8731 -113.5878 101° East 349 402 34,000 1,721 Climbing Los Angeles Center
Thu 11:01:48 AM 35.8542 -113.4625 101° East 329 379 36,100 1,378 Climbing Los Angeles Center
Thu 11:02:50 AM 35.8442 -113.3531 96° East 323 372 37,100 864 Climbing Los Angeles Center
Thu 11:03:53 AM 35.8350 -113.2400 96° East 332 382 37,900 823 Climbing Los Angeles Center
Thu 11:04:54 AM 35.8228 -113.0986 96° East 343 395 38,800 927 Climbing Los Angeles Center
Thu 11:05:56 AM 35.8119 -112.9803 96° East 347 399 39,800 919 Climbing Los Angeles Center
Thu 11:06:58 AM 35.8033 -112.8619 95° East 347 399 40,700 581 Climbing Los Angeles Center
Thu 11:08:00 AM 35.7914 -112.7450 97° East 345 397 41,000 144 Climbing Los Angeles Center
Thu 11:09:03 AM 35.7825 -112.6194 95° East 363 418 41,000  Level Los Angeles Center
Thu 11:10:05 AM 35.7686 -112.4906 98° East 376 433 41,000  Level Los Angeles Center
Thu 11:11:07 AM 35.7528 -112.3303 97° East 391 450 41,000  Level Los Angeles Center
Thu 11:12:09 AM 35.7286 -112.1975 103° East 398 458 41,000  Level Los Angeles Center
Thu 11:13:11 AM 35.7103 -112.0611 99° East 404 465 41,000  Level Los Angeles Center
Thu 11:14:13 AM 35.6869 -111.9261 102° East 404 465 41,000  Level Los Angeles Center
Thu 11:15:15 AM 35.6672 -111.7906 100° East 405 466 41,000  Level Los Angeles Center
Thu 11:16:17 AM 35.6461 -111.6558 101° East 404 465 41,000  Level Los Angeles Center
Thu 11:16:52 AM 35.6333 -111.5747 101° East 403 464 41,000  Level Albuquerque Center
Thu 11:17:55 AM 35.6058 -111.4203 102° East 403 464 41,000  Level Albuquerque Center
Thu 11:18:56 AM 35.5825 -111.2672 101° East 408 470 41,000  Level Albuquerque Center
Thu 11:19:58 AM 35.5614 -111.1372 101° East 406 467 41,000  Level Albuquerque Center
Thu 11:21:00 AM 35.5378 -110.9858 101° East 406 467 41,000  Level Albuquerque Center
Thu 11:22:03 AM 35.5164 -110.8556 101° East 407 468 41,000  Level Albuquerque Center
Thu 11:23:05 AM 35.4942 -110.7264 102° East 405 466 41,000  Level Albuquerque Center
Thu 11:24:07 AM 35.4711 -110.5756 101° East 405 466 41,000  Level Albuquerque Center
Thu 11:25:09 AM 35.4481 -110.4472 102° East 404 465 41,000  Level Albuquerque Center
Thu 11:26:11 AM 35.4236 -110.2964 101° East 403 464 41,000  Level Albuquerque Center
Thu 11:27:13 AM 35.4011 -110.1697 102° East 401 461 41,000  Level Albuquerque Center
Thu 11:28:15 AM 35.3767 -110.0217 101° East 399 459 41,000  Level Albuquerque Center
Thu 11:29:17 AM 35.3553 -109.8964 102° East 396 456 41,000  Level Albuquerque Center
Thu 11:30:19 AM 35.3300 -109.7503 102° East 394 453 41,000  Level Albuquerque Center
Thu 11:31:21 AM 35.3094 -109.6258 101° East 393 452 41,000  Level Albuquerque Center
Thu 11:32:23 AM 35.2833 -109.4811 102° East 392 451 41,000  Level Albuquerque Center
Thu 11:33:25 AM 35.2625 -109.3583 102° East 389 448 41,000  Level Albuquerque Center
Thu 11:34:27 AM 35.2361 -109.2144 103° East 389 448 41,000  Level Albuquerque Center
Thu 11:35:29 AM 35.2147 -109.0914 102° East 388 447 41,000  Level Albuquerque Center
Thu 11:36:31 AM 35.1886 -108.9492 103° East 387 445 41,000  Level Albuquerque Center
Thu 11:37:33 AM 35.1656 -108.8267 103° East 387 445 41,000  Level Albuquerque Center
Thu 11:38:35 AM 35.1406 -108.6836 102° East 387 445 41,000  Level Albuquerque Center
Thu 11:39:38 AM 35.1178 -108.5600 103° East 389 448 41,000  Level Albuquerque Center
Thu 11:40:40 AM 35.0919 -108.4169 102° East 388 447 41,000  Level Albuquerque Center
Thu 11:41:42 AM 35.0686 -108.2956 103° East 387 445 41,000  Level Albuquerque Center
Thu 11:42:44 AM 35.0417 -108.1522 103° East 388 447 41,000  Level Albuquerque Center
Thu 11:43:46 AM 35.0189 -108.0297 103° East 388 447 41,000  Level Albuquerque Center
Thu 11:44:48 AM 34.9908 -107.8869 103° East 388 447 41,000  Level Albuquerque Center
Thu 11:45:50 AM 34.9669 -107.7622 103° East 388 447 41,000  Level Albuquerque Center
Thu 11:46:52 AM 34.9417 -107.6350 104° East 389 448 41,000  Level Albuquerque Center
Thu 11:47:54 AM 34.9186 -107.5069 102° East 387 445 41,000  Level Albuquerque Center
Thu 11:48:56 AM 34.8925 -107.3806 104° East 388 447 41,000  Level Albuquerque Center
Thu 11:49:58 AM 34.8675 -107.2528 103° East 389 448 41,000  Level Albuquerque Center
Thu 11:51:00 AM 34.8367 -107.1000 104° East 391 450 41,000  Level Albuquerque Center
Thu 11:52:02 AM 34.8106 -106.9744 104° East 389 448 41,000  Level Albuquerque Center
Thu 11:53:04 AM 34.7869 -106.8464 103° East 391 450 41,000  Level Albuquerque Center
Thu 11:54:06 AM 34.7581 -106.7172 105° East 400 460 41,000  Level Albuquerque Center
Thu 11:55:08 AM 34.7336 -106.5883 103° East 396 456 41,000  Level Albuquerque Center
Thu 11:56:10 AM 34.7011 -106.4339 104° East 395 455 41,000  Level Albuquerque Center
Thu 11:57:12 AM 34.6758 -106.3042 103° East 396 456 41,000  Level Albuquerque Center
Thu 11:58:14 AM 34.6469 -106.1692 105° East 396 456 41,000  Level Albuquerque Center
Thu 11:59:16 AM 34.6211 -106.0375 103° East 398 458 41,000  Level Albuquerque Center
Thu 12:00:18 PM 34.5917 -105.9047 105° East 402 463 41,000  Level Albuquerque Center
Thu 12:01:20 PM 34.5644 -105.7739 104° East 400 460 41,000  Level Albuquerque Center
Thu 12:02:21 PM 34.5336 -105.6189 104° East 402 463 41,000  Level Albuquerque Center
Thu 12:03:23 PM 34.5044 -105.4872 105° East 402 463 41,000  Level Albuquerque Center
Thu 12:04:25 PM 34.4775 -105.3558 104° East 400 460 41,000  Level Albuquerque Center
Thu 12:05:27 PM 34.4478 -105.2236 105° East 403 464 41,000  Level Albuquerque Center
Thu 12:06:29 PM 34.4211 -105.0911 104° East 403 464 41,000  Level Albuquerque Center
Thu 12:07:31 PM 34.3917 -104.9594 105° East 402 463 41,000  Level Albuquerque Center
Thu 12:08:33 PM 34.3628 -104.8289 105° East 400 460 41,000  Level Albuquerque Center
Thu 12:09:35 PM 34.3311 -104.6736 104° East 404 465 41,000  Level Albuquerque Center
Thu 12:10:37 PM 34.3003 -104.5417 106° East 405 466 41,000  Level Albuquerque Center
Thu 12:11:39 PM 34.2711 -104.4083 105° East 407 468 41,000  Level Albuquerque Center
Thu 12:12:41 PM 34.2408 -104.2761 105° East 406 467 41,000  Level Albuquerque Center
Thu 12:13:43 PM 34.2122 -104.1414 104° East 410 472 41,000 -435 Level Albuquerque Center
Thu 12:14:45 PM 34.1817 -104.0111 106° East 407 468 40,100 -919 Descending Albuquerque Center
Thu 12:15:47 PM 34.1536 -103.8831 105° East 398 458 39,100 -1,210 Descending Albuquerque Center
Thu 12:16:49 PM 34.1186 -103.7281 105° East 402 463 37,600 -1,597 Descending Albuquerque Center
Thu 12:17:51 PM 34.0906 -103.6131 106° East 413 475 35,800 -2,032 Descending Albuquerque Center
Thu 12:18:53 PM 34.0556 -103.4500 104° East 417 480 33,400 -2,177 Descending Albuquerque Center
Thu 12:19:55 PM 34.0231 -103.3156 106° East 418 481 31,300 -1,984 Descending Albuquerque Center
Thu 12:20:57 PM 33.9928 -103.1825 105° East 415 478 29,300 -1,984 Descending Albuquerque Center
Thu 12:21:59 PM 33.9600 -103.0500 107° East 414 476 27,200 -2,032 Descending Albuquerque Center
Thu 12:23:01 PM 33.9281 -102.9181 106° East 411 473 25,100 -1,984 Descending Albuquerque Center
Thu 12:24:03 PM 33.8978 -102.7853 105° East 412 474 23,100 -1,887 Descending Albuquerque Center
Thu 12:25:05 PM 33.8661 -102.6533 106° East 411 473 21,200 -2,081 Descending Albuquerque Center
Thu 12:26:07 PM 33.8556 -102.4989 95° East 398 458 18,800 -2,115 Descending Albuquerque Center
Thu 12:27:07 PM 33.8622 -102.3708 86° East 369 425 16,900 -1,761 Descending Fort Worth Center
Thu 12:27:39 PM 33.8664 -102.3211 84° East 372 428 16,100 -1,957 Descending Fort Worth Center
Thu 12:28:39 PM 33.8714 -102.1914 87° East 356 410 13,900 -2,274 Descending Fort Worth Center
Thu 12:29:14 PM 33.8739 -102.1264 87° East 342 394 12,500 -2,500 Descending Fort Worth Center
Thu 12:30:15 PM 33.8797 -102.0242 86° East 303 349 9,900 -2,754 Descending Fort Worth Center
Thu 12:31:16 PM 33.8894 -101.9297 83° East 271 312 6,900 -2,430 Descending Fort Worth Center
Thu 12:32:16 PM 33.8647 -101.8633 114° Southeast 241 277 5,000 -942 Descending Fort Worth Center
Thu 12:33:17 PM 33.8197 -101.8311 149° Southeast 173 199 5,000 -50 Level Fort Worth Center
Thu 12:34:17 PM 33.7761 -101.8314 180° South 132 152 4,900 -347 Descending Fort Worth Center
Thu 12:35:18 PM 33.7364 -101.8317 180° South 138 159 4,300 -590 Descending Fort Worth Center
Thu 12:36:19 PM 33.6989 -101.8325 181° South 132 152 3,700 -590 Descending Fort Worth Center
Thu 12:38:00 PM 33.6637 -101.8206 176° South  Level Estimated
Thu 12:45:00 PM 33.6637 -101.8206 176° South  Level Estimated

Login

Don't have an account? Register now (free) for customized features, flight alerts, and more!